Time;durP1;ratioP1;P1;durP2;ratioP2;P2;SDS_P1;SDS_P2;PMS_P1;PMS_P2;Temp;Humidity;BMP_temperature;BMP_pressure;BME280_temperature;BME280_humidity;BME280_pressure;Samples;Min_cycle;Max_cycle;Signal;HPM_P1;HPM_P2
2021/03/09 00:01:07;;;;;;;78.63;34.50;;;;;;;;;;5073363;28;20181;-76
2021/03/09 00:03:33;;;;;;;77.17;34.03;;;;;;;;;;5074224;28;20191;-76
2021/03/09 00:05:58;;;;;;;79.93;34.13;;;;;;;;;;5056616;28;20188;-75
2021/03/09 00:08:24;;;;;;;78.57;33.67;;;;;;;;;;5073204;28;20684;-76
2021/03/09 00:10:50;;;;;;;72.73;33.17;;;;;;;;;;5074316;28;20741;-75
2021/03/09 00:13:16;;;;;;;72.60;33.43;;;;;;;;;;5072999;28;20616;-75
2021/03/09 00:15:42;;;;;;;76.60;34.03;;;;;;;;;;5073132;28;20185;-75
2021/03/09 00:18:12;;;;;;;72.70;32.73;;;;;;;;;;5072983;28;20576;-75
2021/03/09 00:20:37;;;;;;;82.03;34.40;;;;;;;;;;5072916;28;20180;-75
2021/03/09 00:23:05;;;;;;;82.23;36.07;;;;;;;;;;5056065;28;20209;-75
2021/03/09 00:25:31;;;;;;;80.03;34.03;;;;;;;;;;5056765;28;20756;-75
2021/03/09 00:27:57;;;;;;;79.63;34.10;;;;;;;;;;5074445;28;20201;-75
2021/03/09 00:30:23;;;;;;;72.63;33.37;;;;;;;;;;5072883;28;20274;-75
2021/03/09 00:32:49;;;;;;;81.93;34.13;;;;;;;;;;5073683;28;20183;-75
2021/03/09 00:35:15;;;;;;;81.27;34.03;;;;;;;;;;5056259;28;20191;-75
2021/03/09 00:37:41;;;;;;;81.30;35.97;;;;;;;;;;5071636;28;20487;-75
2021/03/09 00:40:08;;;;;;;78.13;33.90;;;;;;;;;;5072847;28;20185;-75
2021/03/09 00:42:34;;;;;;;74.70;34.53;;;;;;;;;;5072352;28;20185;-75
2021/03/09 00:45:00;;;;;;;87.20;36.10;;;;;;;;;;5073803;28;20608;-75
2021/03/09 00:47:26;;;;;;;87.23;37.33;;;;;;;;;;5072244;28;20217;-75
2021/03/09 00:49:54;;;;;;;83.50;35.50;;;;;;;;;;5073913;28;20208;-74
2021/03/09 00:52:20;;;;;;;87.13;35.80;;;;;;;;;;5072496;28;20172;-74
2021/03/09 00:54:46;;;;;;;85.57;34.53;;;;;;;;;;5073593;28;20226;-73
2021/03/09 00:57:12;;;;;;;86.40;35.60;;;;;;;;;;5073484;28;20216;-76
2021/03/09 00:59:38;;;;;;;86.60;35.43;;;;;;;;;;5073522;28;20176;-76
2021/03/09 01:02:04;;;;;;;79.00;35.33;;;;;;;;;;5066495;28;20182;-76
2021/03/09 01:04:30;;;;;;;84.90;35.87;;;;;;;;;;5053281;28;20602;-76
2021/03/09 01:06:56;;;;;;;83.93;35.83;;;;;;;;;;5053179;28;20189;-77
2021/03/09 01:09:22;;;;;;;83.17;35.33;;;;;;;;;;5052115;28;20209;-74
2021/03/09 01:11:48;;;;;;;87.73;35.60;;;;;;;;;;5052061;28;20888;-74
2021/03/09 01:14:13;;;;;;;82.13;34.40;;;;;;;;;;5051896;28;20635;-74
2021/03/09 01:16:39;;;;;;;79.10;34.47;;;;;;;;;;5052008;28;20645;-75
2021/03/09 01:19:05;;;;;;;81.80;34.40;;;;;;;;;;5035531;28;20693;-74
2021/03/09 01:21:31;;;;;;;86.60;34.80;;;;;;;;;;5051970;28;20710;-74
2021/03/09 01:23:57;;;;;;;77.37;33.40;;;;;;;;;;5052793;28;20642;-75
2021/03/09 01:26:23;;;;;;;86.73;35.30;;;;;;;;;;5035227;28;20196;-74
2021/03/09 01:28:49;;;;;;;97.93;37.67;;;;;;;;;;5052779;28;20209;-74
2021/03/09 01:31:15;;;;;;;88.30;35.90;;;;;;;;;;5051575;28;20213;-75
2021/03/09 01:33:41;;;;;;;91.60;36.53;;;;;;;;;;5051440;28;20305;-74
2021/03/09 01:36:07;;;;;;;91.87;36.93;;;;;;;;;;5052934;28;20559;-74
2021/03/09 01:38:33;;;;;;;93.13;38.50;;;;;;;;;;5051563;28;20202;-74
2021/03/09 01:40:59;;;;;;;98.37;37.87;;;;;;;;;;5051731;28;20185;-74
2021/03/09 01:43:25;;;;;;;94.50;38.23;;;;;;;;;;5034789;28;20561;-75
2021/03/09 01:45:51;;;;;;;99.47;38.60;;;;;;;;;;5051537;28;20191;-74
2021/03/09 01:48:17;;;;;;;97.13;39.73;;;;;;;;;;5050980;28;20217;-74
2021/03/09 01:50:43;;;;;;;89.23;32.40;;;;;;;;;;5051299;28;20699;-74
2021/03/09 01:53:09;;;;;;;101.87;39.83;;;;;;;;;;5034515;28;20715;-74
2021/03/09 01:55:35;;;;;;;94.43;38.20;;;;;;;;;;5051378;28;20253;-74
2021/03/09 01:58:01;;;;;;;100.63;40.17;;;;;;;;;;5051020;28;20220;-74
2021/03/09 02:00:27;;;;;;;95.50;38.87;;;;;;;;;;5051317;28;20224;-74
2021/03/09 02:02:53;;;;;;;103.30;39.47;;;;;;;;;;5050838;28;20208;-74
2021/03/09 02:05:19;;;;;;;101.57;40.00;;;;;;;;;;5051166;28;20181;-74
2021/03/09 02:07:45;;;;;;;101.07;40.33;;;;;;;;;;5034447;28;20212;-75
2021/03/09 02:10:12;;;;;;;103.93;40.97;;;;;;;;;;5052104;28;20269;-75
2021/03/09 02:12:38;;;;;;;109.70;41.60;;;;;;;;;;5050770;28;20202;-75
2021/03/09 02:15:16;;;;;;;99.60;41.00;;;;;;;;;;5050761;28;20181;-74
2021/03/09 02:17:46;;;;;;;106.70;41.67;;;;;;;;;;5052053;28;20204;-76
2021/03/09 02:20:56;;;;;;;105.97;42.80;;;4.10;99.90;;;;;;5050738;28;20234;-75
2021/03/09 02:23:34;;;;;;;102.43;40.47;;;4.30;99.90;;;;;;5050743;28;20194;-76
2021/03/09 02:26:21;;;;;;;107.57;40.67;;;4.20;99.90;;;;;;5050792;28;20179;-76
2021/03/09 02:29:11;;;;;;;88.20;34.33;;;4.20;99.90;;;;;;5050530;28;20207;-74
2021/03/09 02:31:36;;;;;;;103.00;40.83;;;4.30;99.90;;;;;;5050763;28;20208;-73
2021/03/09 02:34:06;;;;;;;93.60;40.27;;;;;;;;;;5017379;28;20190;-76
2021/03/09 02:36:32;;;;;;;103.80;42.23;;;;;;;;;;5050912;28;20237;-76
2021/03/09 02:39:02;;;;;;;103.83;41.70;;;;;;;;;;5050745;28;20198;-74
2021/03/09 02:41:28;;;;;;;100.20;42.10;;;;;;;;;;5051824;28;20180;-74
2021/03/09 02:43:54;;;;;;;97.93;41.03;;;;;;;;;;5050177;28;20170;-74
2021/03/09 02:46:21;;;;;;;95.33;40.17;;;;;;;;;;5050561;28;20181;-74
2021/03/09 02:48:47;;;;;;;94.17;40.53;;;;;;;;;;5051472;28;20219;-74
2021/03/09 02:51:13;;;;;;;96.57;40.83;;;;;;;;;;5050420;28;20213;-77
2021/03/09 02:53:39;;;;;;;99.00;40.93;;;;;;;;;;5033606;28;20664;-74
2021/03/09 02:56:05;;;;;;;89.87;39.13;;;;;;;;;;5051498;28;20182;-74
2021/03/09 02:58:31;;;;;;;94.77;39.40;;;;;;;;;;5050330;28;20220;-74
2021/03/09 03:00:57;;;;;;;94.90;40.10;;;;;;;;;;5053617;28;20177;-74
2021/03/09 03:03:23;;;;;;;89.77;40.27;;;;;;;;;;5054400;28;20200;-73
2021/03/09 03:05:49;;;;;;;101.10;40.47;;;;;;;;;;5054558;28;20638;-74
2021/03/09 03:08:15;;;;;;;98.07;40.83;;;;;;;;;;5037860;28;20194;-74
2021/03/09 03:10:42;;;;;;;95.13;41.60;;;;;;;;;;5054290;28;20212;-73
2021/03/09 03:13:08;;;;;;;93.20;41.23;;;;;;;;;;5054115;28;20268;-73
2021/03/09 03:15:34;;;;;;;101.73;42.20;;;;;;;;;;5054274;28;20171;-74
2021/03/09 03:18:00;;;;;;;93.53;40.03;;;;;;;;;;5054327;28;20194;-74
2021/03/09 03:20:26;;;;;;;87.87;37.07;;;;;;;;;;5054283;28;20231;-74
2021/03/09 03:22:52;;;;;;;102.63;41.80;;;;;;;;;;5054155;28;20178;-74
2021/03/09 03:25:18;;;;;;;95.00;41.77;;;;;;;;;;5036951;28;20611;-73
2021/03/09 03:27:45;;;;;;;96.13;41.87;;;;;;;;;;5037725;28;20207;-73
2021/03/09 03:30:12;;;;;;;94.90;41.87;;;;;;;;;;5037334;28;20215;-73
2021/03/09 03:32:38;;;;;;;99.37;41.10;;;;;;;;;;5055271;28;20551;-74
2021/03/09 03:35:05;;;;;;;92.60;40.10;;;;;;;;;;5037436;28;20204;-74
2021/03/09 03:37:31;;;;;;;85.00;39.27;;;;;;;;;;5053859;28;20236;-73
2021/03/09 03:39:57;;;;;;;92.83;39.27;;;;;;;;;;5053989;28;20192;-74
2021/03/09 03:42:23;;;;;;;90.07;38.57;;;;;;;;;;5053666;28;20179;-74
2021/03/09 03:44:49;;;;;;;88.37;40.83;;;;;;;;;;5054874;28;20181;-74
2021/03/09 03:47:15;;;;;;;102.47;42.43;;;;;;;;;;5053488;28;20179;-73
2021/03/09 03:49:41;;;;;;;79.10;33.00;;;;;;;;;;5054884;28;20213;-74
2021/03/09 03:52:10;;;;;;;88.93;37.97;;;;;;;;;;5053787;28;20270;-73
2021/03/09 03:55:05;;;;;;;79.53;35.17;;;;;;;;;;5053567;28;20181;-74
2021/03/09 03:57:32;;;;;;;86.00;38.10;;;;;;;;;;5046184;28;20247;-75
2021/03/09 03:59:59;;;;;;;92.77;38.13;;;;;;;;;;5054791;28;20737;-74
2021/03/09 04:02:25;;;;;;;84.50;37.93;;;;;;;;;;5053246;28;20267;-73
2021/03/09 04:04:51;;;;;;;89.27;38.83;;;;;;;;;;5036737;28;20328;-73
2021/03/09 04:07:23;;;;;;;86.97;39.13;;;;;;;;;;5054243;28;20181;-73
2021/03/09 04:09:50;;;;;;;88.57;40.17;;;;;;;;;;5053289;28;20189;-73
2021/03/09 04:12:16;;;;;;;87.70;39.00;;;;;;;;;;5051770;28;20204;-73
2021/03/09 04:14:42;;;;;;;88.73;40.13;;;;;;;;;;5053060;28;20183;-73
2021/03/09 04:17:08;;;;;;;93.73;41.80;;;;;;;;;;5053088;28;20690;-74
2021/03/09 04:19:34;;;;;;;94.40;41.57;;;;;;;;;;5053235;28;20178;-74
2021/03/09 04:22:00;;;;;;;103.47;45.77;;;;;;;;;;5052959;28;20200;-74
2021/03/09 04:24:26;;;;;;;110.43;46.30;;;;;;;;;;5052915;28;20178;-75
2021/03/09 04:26:52;;;;;;;84.07;33.60;;;;;;;;;;5052924;28;20204;-74
2021/03/09 04:29:18;;;;;;;101.37;43.20;;;;;;;;;;5036324;28;20348;-74
2021/03/09 04:31:44;;;;;;;109.93;46.90;;;;;;;;;;5052848;28;20239;-73
2021/03/09 04:34:10;;;;;;;108.20;47.20;;;;;;;;;;5036077;28;20693;-73
2021/03/09 04:36:36;;;;;;;104.97;46.17;;;;;;;;;;5052779;28;20180;-73
2021/03/09 04:39:02;;;;;;;114.03;48.13;;;;;;;;;;5036337;28;20208;-73
2021/03/09 04:41:28;;;;;;;109.37;45.83;;;;;;;;;;5052820;28;20244;-75
2021/03/09 04:43:54;;;;;;;107.90;45.07;;;;;;;;;;5052351;28;20674;-73
2021/03/09 04:46:21;;;;;;;107.70;46.13;;;;;;;;;;5052728;28;20258;-73
2021/03/09 04:48:47;;;;;;;109.17;48.43;;;;;;;;;;5076341;23;20363;-74
2021/03/09 04:51:13;;;;;;;111.70;47.90;;;;;;;;;;5070771;28;20286;-75
2021/03/09 04:53:39;;;;;;;116.30;51.37;;;;;;;;;;5072233;28;20180;-73
2021/03/09 04:56:05;;;;;;;104.70;48.80;;;;;;;;;;5055803;28;20170;-72
2021/03/09 04:58:31;;;;;;;107.57;49.23;;;;;;;;;;5073511;28;20404;-73
2021/03/09 05:00:57;;;;;;;108.23;50.17;;;;;;;;;;5072345;28;20292;-72
2021/03/09 05:03:23;;;;;;;106.23;48.37;;;;;;;;;;5069606;28;20184;-73
2021/03/09 05:05:49;;;;;;;108.83;49.60;;;;;;;;;;5072298;28;20177;-72
2021/03/09 05:08:15;;;;;;;94.73;44.00;;;;;;;;;;5072108;28;20626;-73
2021/03/09 05:10:41;;;;;;;110.23;48.87;;;;;;;;;;5072187;28;20213;-72
2021/03/09 05:13:07;;;;;;;91.73;42.20;;;;;;;;;;5071834;28;20175;-72
2021/03/09 05:15:33;;;;;;;103.10;49.30;;;;;;;;;;5073295;28;20177;-72
2021/03/09 05:17:59;;;;;;;98.10;46.40;;;;;;;;;;5073119;28;20184;-73
2021/03/09 05:20:25;;;;;;;87.63;38.67;;;;;;;;;;5073118;28;20182;-73
2021/03/09 05:22:51;;;;;;;104.33;49.73;;;;;;;;;;5071170;28;20315;-73
2021/03/09 05:25:17;;;;;;;97.60;45.60;;;;;;;;;;5071941;28;20184;-74
2021/03/09 05:27:44;;;;;;;85.53;38.87;;;;;;;;;;5071847;28;20186;-73
2021/03/09 05:30:10;;;;;;;86.47;36.40;;;;;;;;;;5071515;28;20217;-74
2021/03/09 05:32:36;;;;;;;104.53;48.63;;;;;;;;;;5071803;28;20549;-73
2021/03/09 05:35:02;;;;;;;109.73;48.90;;;;;;;;;;5071421;28;20177;-74
2021/03/09 05:37:28;;;;;;;112.73;52.43;;;;;;;;;;5072859;28;20215;-73
2021/03/09 05:39:54;;;;;;;114.17;52.37;;;;;;;;;;5072659;28;20237;-74
2021/03/09 05:42:20;;;;;;;112.30;50.77;;;;;;;;;;5071591;28;20660;-73
2021/03/09 05:44:46;;;;;;;113.00;50.30;;;;;;;;;;5071190;28;20174;-74
2021/03/09 05:47:12;;;;;;;114.67;51.83;;;;;;;;;;5072579;28;20185;-74
2021/03/09 05:49:38;;;;;;;114.83;51.60;;;;;;;;;;5071196;28;20267;-74
2021/03/09 05:52:04;;;;;;;103.00;44.67;;;;;;;;;;5071088;28;20217;-76
2021/03/09 05:54:30;;;;;;;114.83;54.07;;;;;;;;;;5054327;28;20326;-74
2021/03/09 05:56:56;;;;;;;118.37;52.13;;;;;;;;;;5067378;28;20217;-73
2021/03/09 05:59:23;;;;;;;111.57;51.00;;;;;;;;;;5071030;28;20202;-72
2021/03/09 06:01:49;;;;;;;113.77;53.73;;;;;;;;;;5054312;28;20211;-73
2021/03/09 06:04:14;;;;;;;105.97;46.73;;;;;;;;;;5070772;28;20237;-74
2021/03/09 06:06:40;;;;;;;113.73;53.10;;;;;;;;;;5072213;28;20192;-76
2021/03/09 06:09:25;;;;;;;110.87;52.33;;;;;;;;;;5070226;28;20196;-76
2021/03/09 06:12:07;;;;;;;100.63;43.07;;;;;;;;;;5070902;28;20241;-77
2021/03/09 06:14:33;;;;;;;101.67;45.93;;;;;;;;;;5070592;28;20169;-75
2021/03/09 06:16:59;;;;;;;108.40;51.33;;;;;;;;;;5071226;28;20180;-76
2021/03/09 06:19:40;;;;;;;93.90;44.73;;;;;;;;;;5070711;28;20210;-76
2021/03/09 06:22:06;;;;;;;63.20;31.83;;;;;;;;;;5070197;28;20181;-74
2021/03/09 06:24:31;;;;;;;104.87;49.63;;;;;;;;;;5051433;28;20192;-77
2021/03/09 06:26:57;;;;;;;97.57;49.40;;;;;;;;;;5075912;28;20191;-77
2021/03/09 06:29:23;;;;;;;109.67;52.67;;;;;;;;;;5074245;28;20204;-76
2021/03/09 06:31:49;;;;;;;82.63;38.20;;;;;;;;;;5074048;28;20265;-77
2021/03/09 06:34:25;;;;;;;102.63;50.77;;;;;;;;;;5077317;28;20179;-75
2021/03/09 06:37:06;;;;;;;84.40;39.43;;;;;;;;;;5080229;28;20235;-75
2021/03/09 06:39:41;;;;;;;98.27;47.30;;;;;;;;;;5076277;28;20200;-76
2021/03/09 06:42:07;;;;;;;111.00;50.07;;;;;;;;;;5069866;28;20195;-76
2021/03/09 06:44:33;;;;;;;111.03;52.67;;;;;;;;;;5053736;28;20191;-76
2021/03/09 06:46:59;;;;;;;110.83;54.30;;;;;;;;;;5071660;28;20246;-75
2021/03/09 06:49:25;;;;;;;108.57;51.43;;;;;;;;;;5072968;28;20227;-75
2021/03/09 06:51:51;;;;;;;121.60;56.67;;;;;;;;;;5061084;28;20203;-75
2021/03/09 06:54:17;;;;;;;111.43;51.50;;;;;;;;;;5072429;28;20514;-74
2021/03/09 06:56:43;;;;;;;112.33;55.20;;;;;;;;;;5077956;28;20191;-74
2021/03/09 06:59:26;;;;;;;116.07;54.30;;;;;;;;;;5070470;28;20842;-75
2021/03/09 07:02:07;;;;;;;115.00;53.50;;;;;;;;;;5068560;28;20275;-76
2021/03/09 07:04:33;;;;;;;115.97;54.93;;;;;;;;;;5071393;28;20202;-75
2021/03/09 07:07:00;;;;;;;118.20;55.97;;;;;;;;;;5071572;28;20184;-76
2021/03/09 07:09:26;;;;;;;121.80;57.60;;;;;;;;;;5070199;28;20715;-75
2021/03/09 07:11:52;;;;;;;116.27;54.97;;;;;;;;;;5065344;28;20279;-74
2021/03/09 07:14:17;;;;;;;123.23;57.80;;;;;;;;;;5070317;28;20770;-74
2021/03/09 07:16:47;;;;;;;114.30;54.87;;;;;;;;;;5070244;28;20668;-74
2021/03/09 07:19:13;;;;;;;119.77;55.67;;;;;;;;;;5070113;28;20200;-73
2021/03/09 07:21:39;;;;;;;123.47;60.27;;;;;;;;;;5066825;28;20193;-74
2021/03/09 07:24:05;;;;;;;122.17;56.47;;;;;;;;;;5068983;28;20200;-74
2021/03/09 07:26:31;;;;;;;113.00;56.23;;;;;;;;;;5069905;28;20182;-74
2021/03/09 07:28:58;;;;;;;116.07;55.23;;;;;;;;;;5067585;28;20230;-74
2021/03/09 07:31:25;;;;;;;113.90;55.10;;;;;;;;;;5063809;28;20502;-74
2021/03/09 07:33:51;;;;;;;117.37;56.50;;;;;;;;;;5070787;28;20188;-73
2021/03/09 07:36:17;;;;;;;115.17;56.77;;;;;;;;;;5070136;28;20175;-73
2021/03/09 07:38:45;;;;;;;113.53;54.77;;;;;;;;;;5053331;28;20201;-73
2021/03/09 07:41:11;;;;;;;103.53;51.73;;;;;;;;;;5063884;28;20185;-73
2021/03/09 07:43:38;;;;;;;98.03;52.83;;;;;;;;;;5069726;28;20249;-73
2021/03/09 07:46:07;;;;;;;104.43;51.60;;;;;;;;;;5071369;28;20181;-73
2021/03/09 07:48:33;;;;;;;78.77;42.73;;;;;;;;;;5071800;28;20241;-72
2021/03/09 07:51:03;;;;;;;95.80;49.00;;;;;;;;;;5067691;28;20731;-72
2021/03/09 07:53:29;;;;;;;53.00;27.03;;;;;;;;;;5073555;28;20195;-72
2021/03/09 07:56:12;;;;;;;92.83;49.67;;;;;;;;;;5066000;28;20257;-72
2021/03/09 07:58:38;;;;;;;88.00;47.07;;;;;;;;;;5051120;28;20227;-72
2021/03/09 08:01:05;;;;;;;88.47;47.67;;;;;;;;;;5072940;28;20185;-72
2021/03/09 08:03:35;;;;;;;82.73;43.97;;;;;;;;;;5056238;28;20188;-73
2021/03/09 08:06:10;;;;;;;94.80;47.80;;;;;;;;;;5073414;28;20189;-73
2021/03/09 08:08:45;;;;;;;89.60;46.37;;;;;;;;;;5074649;28;20204;-72
2021/03/09 08:11:14;;;;;;;83.07;42.90;;;;;;;;;;5074908;28;20265;-72
2021/03/09 08:13:43;;;;;;;84.37;43.03;;;;;;;;;;5074554;28;20644;-72
2021/03/09 08:16:23;;;;;;;83.03;43.63;;;;;;;;;;5073363;28;20187;-72
2021/03/09 08:18:50;;;;;;;68.73;33.70;;;;;;;;;;5072770;28;20704;-72
2021/03/09 08:21:16;;;;;;;78.70;41.97;;;;;;;;;;5074131;28;20192;-73
2021/03/09 08:23:45;;;;;;;75.50;39.27;;;;;;;;;;5056178;28;20182;-72
2021/03/09 08:26:14;;;;;;;80.77;40.97;;;;;;;;;;5072932;28;20181;-71
2021/03/09 08:28:41;;;;;;;90.00;47.70;;;;;;;;;;5074252;28;20204;-73
2021/03/09 08:31:10;;;;;;;94.57;48.83;;;;;;;;;;5073952;28;20684;-72
2021/03/09 08:33:39;;;;;;;90.27;48.33;;;;;;;;;;5070205;28;20249;-71
2021/03/09 08:36:23;;;;;;;158.20;83.57;;;;;;;;;;5052779;28;20669;-76
2021/03/09 08:39:04;;;;;;;98.63;48.60;;;;;;;;;;5068814;28;20208;-74
2021/03/09 08:44:22;;;;;;;139.83;80.87;;;;;;;;;;5073912;28;20279;-74
2021/03/09 08:46:56;;;;;;;95.57;50.60;;;;;;;;;;5064227;28;20199;-75
2021/03/09 08:49:37;;;;;;;87.07;49.43;;;;;;;;;;5055451;28;20303;-75
2021/03/09 08:52:04;;;;;;;80.60;42.70;;;;;;;;;;5073545;28;20208;-73
2021/03/09 08:54:46;;;;;;;92.07;47.13;;;;;;;;;;5073464;28;20565;-74
2021/03/09 08:57:15;;;;;;;91.00;48.47;;;;;;;;;;5071791;28;20186;-73
2021/03/09 08:59:42;;;;;;;94.93;50.80;;;;;;;;;;5069863;28;20199;-74
2021/03/09 09:02:12;;;;;;;96.67;49.43;;;;;;;;;;5065601;28;20188;-74
2021/03/09 09:04:39;;;;;;;96.30;48.10;;;;;;;;;;5063948;28;20192;-73
2021/03/09 09:07:17;;;;;;;100.53;52.90;;;;;;;;;;5064889;28;20213;-73
2021/03/09 09:09:43;;;;;;;129.87;71.43;;;;;;;;;;5062164;28;20255;-73
2021/03/09 09:12:23;;;;;;;119.77;60.10;;;;;;;;;;5063248;28;20202;-73
2021/03/09 09:15:01;;;;;;;110.50;59.80;;;;;;;;;;5071895;28;20653;-74
2021/03/09 09:17:27;;;;;;;126.43;63.93;;;;;;;;;;5064770;28;20182;-72
2021/03/09 09:20:00;;;;;;;125.43;62.40;;;;;;;;;;5063544;28;20660;-74
2021/03/09 09:22:26;;;;;;;122.10;64.03;;;;;;;;;;5064636;28;20187;-74
2021/03/09 09:24:56;;;;;;;120.43;62.60;;;;;;;;;;5071639;28;20170;-78
2021/03/09 09:27:22;;;;;;;113.93;58.93;;;;;;;;;;5055258;28;20177;-74
2021/03/09 09:30:06;;;;;;;122.17;63.17;;;;;;;;;;5051800;28;20205;-76
2021/03/09 09:32:51;;;;;;;110.87;53.80;;;;;;;;;;5045374;28;20185;-74
2021/03/09 09:35:18;;;;;;;106.03;54.70;;;;;;;;;;5071673;28;20727;-74
2021/03/09 09:37:51;;;;;;;132.53;66.30;;;;;;;;;;5055165;28;20187;-74
2021/03/09 09:40:18;;;;;;;119.93;59.53;;;;;;;;;;5071495;28;20197;-74
2021/03/09 09:42:51;;;;;;;138.87;73.53;;;;;;;;;;5071504;28;20183;-74
2021/03/09 09:45:17;;;;;;;115.67;59.17;;;;;;;;;;5071476;28;20634;-74
2021/03/09 09:47:43;;;;;;;114.97;54.30;;;;;;;;;;5071607;28;20184;-74
2021/03/09 09:50:09;;;;;;;162.27;96.90;;;;;;;;;;5071176;28;20212;-74
2021/03/09 09:52:35;;;;;;;111.93;52.10;;;;;;;;;;5054749;28;20533;-74
2021/03/09 09:55:01;;;;;;;161.40;92.13;;;;;;;;;;5043278;28;20227;-75
2021/03/09 09:57:26;;;;;;;109.40;52.50;;;;;;;;;;5051413;28;20616;-74
2021/03/09 09:59:52;;;;;;;129.80;64.90;;;4.20;99.90;;;;;;5051202;28;20240;-75
2021/03/09 10:02:20;;;;;;;136.07;74.23;;;4.20;99.90;;;;;;5051106;28;20252;-76
2021/03/09 10:04:45;;;;;;;123.33;60.80;;;4.40;99.90;;;;;;5041862;28;20171;-75
2021/03/09 10:07:19;;;;;;;108.90;56.63;;;4.30;99.90;;;;;;5070546;28;20227;-74
2021/03/09 10:10:04;;;;;;;95.90;42.90;;;;;;;;;;5027300;28;20199;-72
2021/03/09 10:12:36;;;;;;;107.53;53.13;;;;;;;;;;5072195;28;20180;-71
2021/03/09 10:15:04;;;;;;;111.17;55.20;;;;;;;;;;5071164;28;20195;-76
2021/03/09 10:17:30;;;;;;;93.73;44.97;;;;;;;;;;5062477;28;20292;-75
2021/03/09 10:19:56;;;;;;;97.87;46.83;;;;;;;;;;5072217;28;20207;-75
2021/03/09 10:22:23;;;;;;;101.10;51.33;;;;;;;;;;5077183;28;20173;-75
2021/03/09 10:24:49;;;;;;;98.37;48.57;;;;;;;;;;5082111;28;20181;-75
2021/03/09 10:27:15;;;;;;;88.53;44.67;;;;;;;;;;5072258;28;20166;-74
2021/03/09 10:29:41;;;;;;;110.97;58.83;;;;;;;;;;5070820;28;20574;-74
2021/03/09 10:32:12;;;;;;;97.47;50.80;;;;;;;;;;5070409;28;20201;-75
2021/03/09 10:34:42;;;;;;;99.03;55.77;;;;;;;;;;5070201;28;20532;-74
2021/03/09 10:37:09;;;;;;;85.30;45.30;;;;;;;;;;5070644;28;20642;-74
2021/03/09 10:39:36;;;;;;;90.07;46.13;;;;;;;;;;5068629;28;20211;-74
2021/03/09 10:42:21;;;;;;;94.67;50.37;;;;;;;;;;5069731;28;20257;-75
2021/03/09 10:44:47;;;;;;;109.47;55.83;;;;;;;;;;5071464;28;20176;-75
2021/03/09 10:47:12;;;;;;;116.23;60.80;;;;;;;;;;5081156;28;20268;-75
2021/03/09 10:49:39;;;;;;;96.90;50.27;;;;;;;;;;5077858;28;20258;-76
2021/03/09 10:52:05;;;;;;;92.50;45.53;;;;;;;;;;5071874;28;20192;-76
2021/03/09 10:54:32;;;;;;;100.23;55.20;;;;;;;;;;5085263;28;20269;-76
2021/03/09 10:56:58;;;;;;;112.83;57.07;;;;;;;;;;5091905;28;20178;-71
2021/03/09 10:59:24;;;;;;;121.93;63.87;;;;;;;;;;5091733;28;20196;-71
2021/03/09 11:01:50;;;;;;;95.80;49.80;;;;;;;;;;5090587;28;20218;-71
2021/03/09 11:04:16;;;;;;;95.10;49.33;;;;;;;;;;5090201;28;20220;-71
2021/03/09 11:06:42;;;;;;;91.40;49.63;;;;;;;;;;5087875;28;20177;-72
2021/03/09 11:09:09;;;;;;;84.17;48.67;;;;;;;;;;5071197;28;20200;-72
2021/03/09 11:11:34;;;;;;;82.80;45.43;;;;;;;;;;5070276;28;20211;-71
2021/03/09 11:14:00;;;;;;;69.17;37.93;;;;;;;;;;5071017;28;20267;-71
2021/03/09 11:16:30;;;;;;;80.40;44.03;;;;;;;;;;5075050;23;20246;-74
2021/03/09 11:18:56;;;;;;;77.37;43.83;;;;;;;;;;5051224;28;20190;-72
2021/03/09 11:21:22;;;;;;;91.77;52.93;;;;;;;;;;5045007;28;20197;-70
2021/03/09 11:23:51;;;;;;;102.10;56.07;;;;;;;;;;5047558;28;20268;-70
2021/03/09 11:26:21;;;;;;;85.90;47.03;;;;;;;;;;5043718;28;20669;-73
2021/03/09 11:28:47;;;;;;;79.93;44.20;;;;;;;;;;5035416;28;20179;-71
2021/03/09 11:31:14;;;;;;;76.93;44.53;;;;;;;;;;5023178;28;20204;-72
2021/03/09 11:33:40;;;;;;;72.20;39.93;;;;;;;;;;5039059;28;20181;-71
2021/03/09 11:36:06;;;;;;;73.67;41.97;;;;;;;;;;5041693;28;20178;-72
2021/03/09 11:38:32;;;;;;;73.77;39.00;;;;;;;;;;5040561;28;20191;-77
2021/03/09 11:40:58;;;;;;;65.47;35.67;;;;;;;;;;5017222;28;20233;-77
2021/03/09 11:43:23;;;;;;;66.97;35.90;;;5.00;99.90;;;;;;5032780;28;20186;-75
2021/03/09 11:45:49;;;;;;;88.17;47.87;;;5.00;99.90;;;;;;5030742;28;20201;-76
2021/03/09 11:48:15;;;;;;;73.30;39.33;;;4.90;99.90;;;;;;5043847;28;20205;-77
2021/03/09 11:50:40;;;;;;;62.50;34.03;;;5.00;99.90;;;;;;5046717;28;20208;-76
2021/03/09 11:53:06;;;;;;;57.70;30.57;;;5.10;99.90;;;;;;5040086;28;20182;-76
2021/03/09 11:55:31;;;;;;;52.93;30.07;;;5.10;99.90;;;;;;5043971;28;20638;-76
2021/03/09 11:57:57;;;;;;;57.20;30.87;;;5.10;99.90;;;;;;5027376;28;20662;-75
2021/03/09 12:00:23;;;;;;;56.97;31.27;;;5.10;99.90;;;;;;5044594;28;20527;-75
2021/03/09 12:02:48;;;;;;;58.57;34.03;;;5.00;99.90;;;;;;5032499;28;20191;-75
2021/03/09 12:05:14;;;;;;;63.63;32.90;;;5.20;99.90;;;;;;5016857;28;20177;-77
2021/03/09 12:07:40;;;;;;;60.80;32.77;;;5.20;99.90;;;;;;5033763;28;20207;-78
2021/03/09 12:10:06;;;;;;;58.63;30.77;;;5.20;99.90;;;;;;5017021;28;20624;-78
2021/03/09 12:12:32;;;;;;;60.03;31.00;;;5.30;99.90;;;;;;5034759;28;20208;-76
2021/03/09 12:14:57;;;;;;;62.33;30.50;;;5.30;99.90;;;;;;5033215;28;20186;-78
2021/03/09 12:17:23;;;;;;;64.07;33.87;;;5.30;99.90;;;;;;5022132;28;20300;-78
2021/03/09 12:19:48;;;;;;;63.90;34.40;;;5.30;99.90;;;;;;5016559;28;20639;-74
2021/03/09 12:22:14;;;;;;;64.17;33.13;;;5.40;99.90;;;;;;5016469;28;20183;-76
2021/03/09 12:24:39;;;;;;;61.53;33.50;;;5.30;99.90;;;;;;5010901;28;20231;-76
2021/03/09 12:27:05;;;;;;;60.17;32.83;;;5.50;99.90;;;;;;5014869;28;20213;-74
2021/03/09 12:29:30;;;;;;;52.70;29.10;;;5.50;99.90;;;;;;5027216;28;20281;-77
2021/03/09 12:31:56;;;;;;;60.27;31.70;;;5.40;99.90;;;;;;5032084;28;20237;-79
2021/03/09 12:34:23;;;;;;;59.13;32.37;;;;;;;;;;5029245;28;20274;-77
2021/03/09 12:36:49;;;;;;;66.73;32.37;;;5.30;99.90;;;;;;5022127;28;20225;-78
2021/03/09 12:39:14;;;;;;;62.57;31.70;;;5.30;99.90;;;;;;4996893;28;20209;-77
2021/03/09 12:41:41;;;;;;;56.10;30.33;;;;;;;;;;5011648;28;20197;-77
2021/03/09 12:44:07;;;;;;;59.20;30.93;;;5.40;99.90;;;;;;5037537;28;20186;-77
2021/03/09 12:46:32;;;;;;;60.40;33.33;;;5.30;99.90;;;;;;5032543;28;20216;-77
2021/03/09 12:48:59;;;;;;;63.13;32.13;;;;;;;;;;5011532;28;20192;-76
2021/03/09 12:51:28;;;;;;;58.33;32.43;;;5.40;99.90;;;;;;5036208;28;20222;-75
2021/03/09 12:53:54;;;;;;;60.73;32.10;;;;;;;;;;5003632;28;20692;-76
2021/03/09 12:56:21;;;;;;;58.57;30.77;;;;;;;;;;5021667;28;20639;-76
2021/03/09 12:58:47;;;;;;;55.83;29.73;;;;;;;;;;5016361;28;20183;-79
2021/03/09 13:01:13;;;;;;;58.67;31.73;;;;;;;;;;5012923;28;20211;-75
2021/03/09 13:03:39;;;;;;;57.83;31.10;;;;;;;;;;5031865;28;20273;-78
2021/03/09 13:06:05;;;;;;;53.67;29.30;;;;;;;;;;5041529;28;20185;-74
2021/03/09 13:08:32;;;;;;;54.70;29.13;;;;;;;;;;5043667;28;20263;-74
2021/03/09 13:10:58;;;;;;;54.23;29.60;;;;;;;;;;5041797;28;20204;-72
2021/03/09 13:13:24;;;;;;;53.67;29.33;;;;;;;;;;5039429;28;20167;-72
2021/03/09 13:15:50;;;;;;;50.20;27.67;;;;;;;;;;5041475;28;20657;-72
2021/03/09 13:18:16;;;;;;;50.43;27.33;;;;;;;;;;5041670;28;20269;-72
2021/03/09 13:20:41;;;;;;;52.57;26.27;;;;;;;;;;5034731;28;20591;-72
2021/03/09 13:23:08;;;;;;;50.57;26.47;;;;;;;;;;5030546;28;20647;-72
2021/03/09 13:25:34;;;;;;;47.80;27.07;;;;;;;;;;5023817;28;20673;-72
2021/03/09 13:28:00;;;;;;;45.47;26.13;;;;;;;;;;5026144;28;20202;-72
2021/03/09 13:30:26;;;;;;;47.50;25.00;;;;;;;;;;5024437;28;20205;-72
2021/03/09 13:32:52;;;;;;;44.37;26.03;;;;;;;;;;5024627;28;20189;-73
2021/03/09 13:35:19;;;;;;;48.13;27.53;;;;;;;;;;5029038;28;20186;-73
2021/03/09 13:37:45;;;;;;;51.07;27.33;;;;;;;;;;5013767;28;20203;-71
2021/03/09 13:40:11;;;;;;;44.67;25.60;;;;;;;;;;5010292;28;20193;-71
2021/03/09 13:42:37;;;;;;;42.63;25.20;;;;;;;;;;5029945;28;20190;-71
2021/03/09 13:45:07;;;;;;;38.93;23.93;;;;;;;;;;5040255;28;20171;-71
2021/03/09 13:47:33;;;;;;;42.70;24.73;;;;;;;;;;5019022;28;20213;-71
2021/03/09 13:49:59;;;;;;;41.67;24.30;;;;;;;;;;5038409;28;20265;-72
2021/03/09 13:52:25;;;;;;;41.73;24.10;;;;;;;;;;5014283;28;20218;-71
2021/03/09 13:54:51;;;;;;;37.27;20.90;;;;;;;;;;5019368;28;20702;-71
2021/03/09 13:57:18;;;;;;;39.17;21.87;;;;;;;;;;5031937;28;20731;-71
2021/03/09 13:59:44;;;;;;;41.63;22.73;;;;;;;;;;5032127;28;20186;-71
2021/03/09 14:02:11;;;;;;;39.03;22.63;;;;;;;;;;5025229;28;20183;-72
2021/03/09 14:04:37;;;;;;;40.80;22.80;;;;;;;;;;5024052;28;20656;-72
2021/03/09 14:07:04;;;;;;;41.37;22.63;;;;;;;;;;5025786;28;20199;-73